Time;durP1;ratioP1;P1;durP2;ratioP2;P2;SDS_P1;SDS_P2;PMS_P1;PMS_P2;Temp;Humidity;BMP_temperature;BMP_pressure;BME280_temperature;BME280_humidity;BME280_pressure;Samples;Min_cycle;Max_cycle;Signal;HPM_P1;HPM_P2
2023/10/07 00:01:24;;;;;;;10.57;4.50;;;;;;;;;;4844362;29;20232;-44
2023/10/07 00:03:53;;;;;;;8.68;4.55;;;;;;;;;;4844501;29;20211;-45
2023/10/07 00:06:26;;;;;;;8.77;4.35;;;;;;;;;;4844443;29;20250;-44
2023/10/07 00:08:54;;;;;;;8.70;4.78;;;;;;;;;;4844138;29;20356;-44
2023/10/07 00:11:22;;;;;;;9.15;5.00;;;;;;;;;;4844263;29;20218;-44
2023/10/07 00:13:54;;;;;;;11.13;5.32;;;;;;;;;;4844168;29;20218;-45
2023/10/07 00:16:23;;;;;;;8.98;5.03;;;;;;;;;;4843837;29;20673;-45
2023/10/07 00:18:51;;;;;;;11.23;5.20;;;;;;;;;;4843860;29;20215;-45
2023/10/07 00:21:27;;;;;;;9.52;4.68;;;;;;;;;;4843836;29;20235;-47
2023/10/07 00:23:56;;;;;;;12.88;5.68;;;;;;;;;;4843867;29;20239;-44
2023/10/07 00:26:26;;;;;;;11.57;5.55;;;;;;;;;;4844148;29;20642;-44
2023/10/07 00:29:00;;;;;;;12.65;5.60;;;;;;;;;;4858000;29;20212;-44
2023/10/07 00:31:32;;;;;;;9.60;4.55;;;;;;;;;;4843714;29;20222;-44
2023/10/07 00:34:13;;;;;;;10.05;4.95;;;;;;;;;;4843634;29;20211;-45
2023/10/07 00:39:09;;;;;;;11.02;5.35;;;;;;;;;;4843768;29;20204;-45
2023/10/07 00:41:45;;;;;;;11.07;5.53;;;;;;;;;;4843398;29;20235;-45
2023/10/07 00:44:32;;;;;;;10.73;5.38;;;;;;;;;;4843772;29;20663;-47
2023/10/07 00:49:43;;;;;;;12.05;6.03;;;;;;;;;;4843450;29;20227;-45
2023/10/07 00:52:14;;;;;;;11.85;5.78;;;;;;;;;;4857701;29;20219;-44
2023/10/07 00:54:50;;;;;;;6.65;4.05;;;;;;;;;;4842208;29;20247;-45
2023/10/07 00:57:24;;;;;;;7.35;4.30;;;;;;;;;;4843268;29;20260;-47
2023/10/07 00:59:55;;;;;;;11.35;4.50;;;;;;;;;;4843395;29;20266;-45
2023/10/07 01:02:30;;;;;;;10.77;4.35;;;;;;;;;;4857410;29;20235;-46
2023/10/07 01:05:06;;;;;;;8.77;4.43;;;;;;;;;;4843148;29;20218;-46
2023/10/07 01:07:34;;;;;;;8.05;4.72;;;;;;;;;;4856532;29;20298;-45
2023/10/07 01:12:39;;;;;;;9.20;4.65;;;;;;;;;;4843408;29;20211;-45
2023/10/07 01:18:05;;;;;;;8.07;4.20;;;;;;;;;;4857060;29;20215;-45
2023/10/07 01:21:31;;;;;;;7.40;4.20;;;;;;;;;;4842953;29;20211;-45
2023/10/07 01:23:33;;;;;;;7.90;3.78;;;;;;;;;;4845300;29;20215;-44
2023/10/07 01:26:02;;;;;;;9.98;4.20;;;;;;;;;;4857280;29;20211;-44
2023/10/07 01:28:32;;;;;;;7.78;4.40;;;;;;;;;;4843122;29;20294;-45
2023/10/07 01:31:12;;;;;;;9.80;4.47;;;;;;;;;;4842854;29;20267;-44
2023/10/07 01:33:41;;;;;;;9.07;3.60;;;;;;;;;;4843100;29;20200;-46
2023/10/07 01:36:16;;;;;;;8.07;3.60;;;;;;;;;;4843060;29;20238;-45
2023/10/07 01:38:52;;;;;;;7.43;4.30;;;;;;;;;;4843274;29;20197;-45
2023/10/07 01:41:21;;;;;;;8.48;4.13;;;;;;;;;;4842627;29;20696;-44
2023/10/07 01:46:27;;;;;;;8.93;3.95;;;;;;;;;;4842694;29;20271;-45
2023/10/07 01:48:57;;;;;;;6.25;3.90;;;;;;;;;;4856882;29;20219;-44
2023/10/07 01:51:28;;;;;;;9.07;3.55;;;;;;;;;;4857040;29;20627;-44
2023/10/07 01:53:58;;;;;;;7.63;3.80;;;;;;;;;;4857013;29;20239;-44
2023/10/07 01:56:26;;;;;;;7.50;3.80;;;;;;;;;;4842717;29;20211;-46
2023/10/07 01:58:54;;;;;;;8.55;4.07;;;;;;;;;;4856767;29;20211;-45
2023/10/07 02:01:22;;;;;;;8.55;4.35;;;;;;;;;;4856834;29;20235;-47
2023/10/07 02:03:49;;;;;;;8.05;4.45;;;;;;;;;;4843019;29;20211;-44
2023/10/07 02:06:18;;;;;;;5.43;3.80;;;;;;;;;;4856952;29;20203;-45
2023/10/07 02:08:46;;;;;;;9.02;3.80;;;;;;;;;;4842467;29;20246;-46
2023/10/07 02:11:17;;;;;;;9.20;3.78;;;;;;;;;;4841278;29;20680;-45
2023/10/07 02:13:45;;;;;;;6.43;3.33;;;;;;;;;;4842479;29;20638;-45
2023/10/07 02:16:13;;;;;;;8.15;3.85;;;;;;;;;;4842479;29;20212;-45
2023/10/07 02:18:44;;;;;;;6.15;3.33;;;;;;;;;;4844125;29;20211;-45
2023/10/07 02:21:12;;;;;;;7.93;3.60;;;;;;;;;;4844952;29;20211;-46
2023/10/07 02:26:14;;;;;;;5.65;3.38;;;;;;;;;;4860083;29;20211;-44
2023/10/07 02:28:42;;;;;;;9.40;3.63;;;;;;;;;;4846093;29;20203;-45
2023/10/07 02:31:15;;;;;;;6.22;3.22;;;;;;;;;;4846284;29;20215;-45
2023/10/07 02:33:42;;;;;;;8.48;3.55;;;;;;;;;;4845780;29;20696;-44
2023/10/07 02:36:28;;;;;;;7.20;3.40;;;;;;;;;;4845918;29;20565;-44
2023/10/07 02:39:26;;;;;;;9.57;3.67;;;;;;;;;;4845535;29;20661;-44
2023/10/07 02:41:54;;;;;;;6.38;3.28;;;;;;;;;;4860042;29;20303;-44
2023/10/07 02:44:27;;;;;;;7.88;3.63;;;;;;;;;;4845489;29;20211;-44
2023/10/07 02:46:56;;;;;;;9.20;3.33;;;;;;;;;;4859820;29;20227;-44
2023/10/07 02:49:25;;;;;;;8.10;3.53;;;;;;;;;;4844277;29;20222;-45
2023/10/07 02:51:56;;;;;;;5.63;3.30;;;;;;;;;;4844298;29;20223;-45
2023/10/07 02:54:28;;;;;;;6.38;3.45;;;;;;;;;;4845265;29;20247;-44
2023/10/07 02:57:07;;;;;;;6.78;3.25;;;;;;;;;;4845551;29;20226;-44
2023/10/07 02:59:36;;;;;;;7.93;2.92;;;;;;;;;;4845456;29;20214;-45
2023/10/07 03:02:12;;;;;;;8.40;3.40;;;;;;;;;;4845400;29;20239;-45
2023/10/07 03:04:43;;;;;;;10.10;3.45;;;;;;;;;;4859482;29;20207;-45
2023/10/07 03:07:16;;;;;;;9.93;4.25;;;;;;;;;;4845120;29;20212;-44
2023/10/07 03:10:04;;;;;;;8.73;3.80;;;;;;;;;;4845136;29;20207;-44
2023/10/07 03:12:36;;;;;;;7.63;3.83;;;;;;;;;;4845426;29;20272;-46
2023/10/07 03:15:20;;;;;;;7.88;4.20;;;;;;;;;;4845326;29;20548;-46
2023/10/07 03:17:49;;;;;;;7.00;3.38;;;;;;;;;;4844271;29;20203;-44
2023/10/07 03:28:25;;;;;;;6.47;3.50;;;;;;;;;;4845079;29;20250;-44
2023/10/07 03:30:54;;;;;;;5.65;2.90;;;;;;;;;;4843893;29;20216;-44
2023/10/07 03:36:30;;;;;;;8.05;3.08;;;;;;;;;;4844924;29;20317;-44
2023/10/07 03:39:16;;;;;;;6.55;2.90;;;;;;;;;;4845007;29;20569;-44
2023/10/07 03:41:51;;;;;;;7.95;3.45;;;;;;;;;;4844669;29;20235;-44
2023/10/07 03:44:20;;;;;;;7.40;3.47;;;;;;;;;;4844886;29;20264;-44
2023/10/07 03:46:50;;;;;;;10.18;3.53;;;;;;;;;;4844723;29;20622;-46
2023/10/07 03:49:21;;;;;;;8.80;3.20;;;;;;;;;;4844395;29;20276;-45
2023/10/07 03:51:55;;;;;;;7.63;3.83;;;;;;;;;;4844527;29;20267;-44
2023/10/07 03:54:29;;;;;;;8.30;3.85;;;;;;;;;;4857235;29;20250;-45
2023/10/07 03:56:57;;;;;;;8.35;3.97;;;;;;;;;;4844369;29;20223;-44
2023/10/07 03:59:24;;;;;;;7.63;3.80;;;;;;;;;;4844445;29;20219;-45
2023/10/07 04:01:53;;;;;;;7.68;3.70;;;;;;;;;;4844364;29;20230;-44
2023/10/07 04:04:22;;;;;;;8.50;4.18;;;;;;;;;;4843978;29;20211;-45
2023/10/07 04:06:50;;;;;;;12.68;4.40;;;;;;;;;;4844110;29;20222;-45
2023/10/07 04:09:32;;;;;;;11.57;5.05;;;;;;;;;;4844065;29;20207;-44
2023/10/07 04:12:00;;;;;;;10.30;4.45;;;;;;;;;;4844088;29;20267;-44
2023/10/07 04:14:28;;;;;;;13.88;5.40;;;;;;;;;;4843675;29;20665;-44
2023/10/07 04:17:11;;;;;;;12.77;5.15;;;;;;;;;;4843829;29;20558;-44
2023/10/07 04:19:52;;;;;;;13.70;5.05;;;;;;;;;;4844089;29;20214;-44
2023/10/07 04:22:19;;;;;;;13.90;4.72;;;;;;;;;;4843679;29;20215;-44
2023/10/07 04:24:46;;;;;;;6.30;3.13;;;;;;;;;;4843662;29;20211;-45
2023/10/07 04:27:20;;;;;;;11.52;4.80;;;;;;;;;;4843493;29;20211;-44
2023/10/07 04:29:51;;;;;;;8.27;3.78;;;;;;;;;;4843704;29;20211;-44
2023/10/07 04:32:23;;;;;;;13.13;3.75;;;;;;;;;;4842024;29;20233;-46
2023/10/07 04:37:47;;;;;;;9.88;4.05;;;;;;;;;;4847562;29;20283;-45
2023/10/07 04:43:25;;;;;;;10.45;3.22;;;;;;;;;;4860965;29;20246;-46
2023/10/07 04:45:37;;;;;;;8.10;3.55;;;;;;;;;;4851590;29;20231;-46
2023/10/07 04:51:03;;;;;;;7.65;3.10;;;;;;;;;;4860872;29;20692;-45
2023/10/07 04:53:39;;;;;;;6.60;3.00;;;;;;;;;;4860562;29;20230;-43
2023/10/07 04:56:09;;;;;;;12.50;4.03;;;;;;;;;;4861000;29;20239;-45
2023/10/07 04:58:40;;;;;;;11.90;4.50;;;;;;;;;;4850179;29;20317;-45
2023/10/07 05:01:22;;;;;;;10.20;3.70;;;;;;;;;;4846936;29;20613;-46
2023/10/07 05:03:55;;;;;;;11.25;4.03;;;;;;;;;;4826029;29;20251;-46
2023/10/07 05:06:23;;;;;;;10.73;3.60;;;;;;;;;;4847138;29;20292;-46
2023/10/07 05:08:50;;;;;;;10.35;4.07;;;;;;;;;;4841956;29;20291;-45
2023/10/07 05:11:18;;;;;;;10.27;4.30;;;;;;;;;;4842117;29;20709;-46
2023/10/07 05:13:46;;;;;;;7.65;2.92;;;;;;;;;;4841930;29;20263;-44
2023/10/07 05:16:14;;;;;;;7.22;3.00;;;;;;;;;;4842314;29;20243;-45
2023/10/07 05:18:42;;;;;;;6.97;2.67;;;;;;;;;;4848785;29;20279;-45
2023/10/07 05:21:11;;;;;;;9.15;3.67;;;;;;;;;;4860991;29;20703;-44
2023/10/07 05:23:41;;;;;;;8.75;2.90;;;;;;;;;;4843763;29;20249;-47
2023/10/07 05:26:09;;;;;;;8.07;3.45;;;;;;;;;;4841045;29;20697;-44
2023/10/07 05:28:39;;;;;;;6.90;2.80;;;;;;;;;;4841213;29;20223;-45
2023/10/07 05:31:08;;;;;;;7.00;2.65;;;;;;;;;;4841355;29;20239;-45
2023/10/07 05:33:35;;;;;;;8.60;3.15;;;;;;;;;;4838947;29;20720;-46
2023/10/07 05:36:24;;;;;;;7.78;3.72;;;;;;;;;;4840486;29;20700;-45
2023/10/07 05:38:52;;;;;;;8.80;3.33;;;;;;;;;;4841086;29;20236;-46
2023/10/07 05:41:25;;;;;;;8.07;2.83;;;;;;;;;;4857059;29;20231;-47
2023/10/07 05:43:52;;;;;;;10.70;3.35;;;;;;;;;;4850280;29;20322;-46
2023/10/07 05:46:19;;;;;;;7.57;3.70;;;;;;;;;;4840584;29;20231;-46
2023/10/07 05:48:48;;;;;;;11.68;4.60;;;;;;;;;;4840052;29;20730;-46
2023/10/07 05:51:16;;;;;;;9.68;4.30;;;;;;;;;;4839158;29;20224;-46
2023/10/07 05:53:49;;;;;;;14.40;3.75;;;;;;;;;;4842730;29;20227;-46
2023/10/07 05:56:16;;;;;;;11.57;3.55;;;;;;;;;;4845560;29;20264;-45
2023/10/07 05:58:45;;;;;;;6.72;2.72;;;;;;;;;;4845051;29;20681;-45
2023/10/07 06:01:14;;;;;;;6.00;2.63;;;;;;;;;;4844096;29;20238;-45
2023/10/07 06:03:43;;;;;;;8.68;3.28;;;;;;;;;;4843263;29;20313;-44
2023/10/07 06:06:10;;;;;;;9.70;2.95;;;;;;;;;;4844778;29;20227;-44
2023/10/07 06:08:37;;;;;;;10.32;3.50;;;;;;;;;;4844775;29;20227;-45
2023/10/07 06:11:10;;;;;;;8.75;3.03;;;;;;;;;;4848559;29;20231;-44
2023/10/07 06:13:40;;;;;;;9.27;2.97;;;;;;;;;;4851092;29;20230;-49
2023/10/07 06:16:08;;;;;;;8.27;3.30;;;;;;;;;;4847256;29;20234;-51
2023/10/07 06:18:36;;;;;;;6.47;3.00;;;;;;;;;;4847705;29;20239;-47
2023/10/07 06:21:27;;;;;;;9.60;3.92;;;;;;;;;;4846555;29;20239;-45
2023/10/07 06:24:06;;;;;;;11.10;3.30;;;;;;;;;;4844372;29;20251;-45
2023/10/07 06:26:35;;;;;;;9.02;3.03;;;;;;;;;;4844983;29;20239;-45
2023/10/07 06:29:06;;;;;;;8.82;2.72;;;;;;;;;;4845481;29;20255;-44
2023/10/07 06:31:34;;;;;;;10.25;3.53;;;;;;;;;;4845963;29;20243;-45
2023/10/07 06:34:12;;;;;;;7.60;2.80;;;;;;;;;;4841120;29;20235;-44
2023/10/07 06:36:42;;;;;;;7.25;3.53;;;;;;;;;;4845350;29;20330;-45
2023/10/07 06:39:10;;;;;;;9.98;3.92;;;;;;;;;;4842913;29;20239;-44
2023/10/07 06:41:42;;;;;;;8.43;3.70;;;;;;;;;;4857894;29;20792;-44
2023/10/07 06:44:10;;;;;;;6.63;2.92;;;;;;;;;;4844948;29;20247;-45
2023/10/07 06:46:41;;;;;;;9.35;3.28;;;;;;;;;;4844893;29;20739;-46
2023/10/07 06:49:16;;;;;;;16.25;3.67;;;;;;;;;;4844297;29;20271;-45
2023/10/07 06:51:44;;;;;;;7.25;2.88;;;;;;;;;;4844894;29;20231;-45
2023/10/07 06:54:14;;;;;;;9.95;3.55;;;;;;;;;;4844758;29;20250;-44
2023/10/07 06:56:41;;;;;;;10.05;3.35;;;;;;;;;;4844735;29;20605;-46
2023/10/07 06:59:10;;;;;;;6.80;3.00;;;;;;;;;;4844538;29;20283;-44
2023/10/07 07:04:10;;;;;;;6.97;2.83;;;;;;;;;;4844196;29;20250;-45
2023/10/07 07:06:45;;;;;;;8.05;3.42;;;;;;;;;;4844699;29;20235;-45
2023/10/07 07:12:03;;;;;;;7.53;2.90;;;;;;;;;;4844412;29;20227;-44
2023/10/07 07:14:31;;;;;;;5.85;2.63;;;;;;;;;;4844336;29;20318;-46
2023/10/07 07:17:28;;;;;;;9.50;2.78;;;;;;;;;;4844270;29;20227;-46
2023/10/07 07:19:45;;;;;;;5.72;2.90;;;;;;;;;;4861112;29;20277;-45
2023/10/07 07:22:12;;;;;;;8.23;2.88;;;;;;;;;;4862765;29;20231;-45
2023/10/07 07:24:41;;;;;;;4.78;2.20;;;;;;;;;;4862214;29;20712;-46
2023/10/07 07:27:09;;;;;;;7.55;2.70;;;;;;;;;;4876889;29;20242;-44
2023/10/07 07:29:36;;;;;;;5.25;2.60;;;;;;;;;;4862320;29;20263;-44
2023/10/07 07:32:17;;;;;;;8.13;2.72;;;;;;;;;;4862224;29;20234;-45
2023/10/07 07:34:45;;;;;;;5.35;2.63;;;;;;;;;;4862180;29;20230;-44
2023/10/07 07:37:14;;;;;;;5.57;2.10;;;;;;;;;;4862705;29;20291;-45
2023/10/07 07:39:41;;;;;;;3.47;2.00;;;;;;;;;;4862245;29;20227;-45
2023/10/07 07:42:22;;;;;;;9.00;2.75;;;;;;;;;;4862556;29;20241;-44
2023/10/07 07:44:58;;;;;;;5.78;2.58;;;;;;;;;;4862126;29;20242;-44
2023/10/07 07:47:31;;;;;;;4.47;2.45;;;;;;;;;;4861801;29;20238;-46
2023/10/07 07:50:02;;;;;;;9.23;2.30;;;;;;;;;;4843582;29;20697;-44
2023/10/07 07:52:32;;;;;;;3.75;2.03;;;;;;;;;;4843743;29;20240;-46
2023/10/07 07:54:59;;;;;;;5.18;2.30;;;;;;;;;;4843382;29;20587;-45
2023/10/07 07:57:27;;;;;;;5.57;2.05;;;;;;;;;;4843568;29;20239;-45
2023/10/07 07:59:58;;;;;;;4.93;2.10;;;;;;;;;;4843218;29;20235;-45
2023/10/07 08:02:26;;;;;;;5.32;2.05;;;;;;;;;;4843268;29;20231;-44
2023/10/07 08:05:02;;;;;;;6.97;2.20;;;;;;;;;;4843257;29;20239;-44
2023/10/07 08:07:30;;;;;;;4.25;2.17;;;;;;;;;;4843519;29;20246;-46
2023/10/07 08:09:58;;;;;;;4.50;2.10;;;;;;;;;;4843271;29;20239;-44
2023/10/07 08:12:31;;;;;;;7.60;2.22;;;;;;;;;;4843314;29;20287;-46
2023/10/07 08:14:58;;;;;;;5.43;2.10;;;;;;;;;;4843560;29;20235;-45
2023/10/07 08:17:29;;;;;;;6.25;2.05;;;;;;;;;;4842274;29;20242;-45
2023/10/07 08:19:57;;;;;;;5.72;2.05;;;;;;;;;;4861586;29;20238;-45
2023/10/07 08:22:27;;;;;;;5.40;2.10;;;;;;;;;;4861452;29;20238;-45
2023/10/07 08:25:00;;;;;;;6.38;2.38;;;;;;;;;;4861412;29;20241;-45
2023/10/07 08:30:28;;;;;;;4.70;1.95;;;;;;;;;;4861673;29;20319;-44
2023/10/07 08:32:55;;;;;;;3.50;1.83;;;;;;;;;;4861129;29;20231;-44
2023/10/07 08:35:25;;;;;;;4.35;1.92;;;;;;;;;;4861362;29;20707;-45
2023/10/07 08:37:53;;;;;;;2.85;1.67;;;;;;;;;;4861308;29;20242;-45
2023/10/07 08:40:39;;;;;;;3.70;1.90;;;;;;;;;;4861707;29;20238;-45
2023/10/07 08:43:10;;;;;;;4.60;1.77;;;;;;;;;;4861247;29;20239;-44
2023/10/07 08:45:39;;;;;;;3.85;1.77;;;;;;;;;;4860072;29;20302;-45
2023/10/07 08:48:19;;;;;;;3.42;1.85;;;;;;;;;;4855169;29;20590;-45
2023/10/07 08:50:55;;;;;;;5.50;1.80;;;;;;;;;;4855628;29;20234;-45
2023/10/07 08:53:26;;;;;;;3.95;2.40;;;;;;;;;;4855876;29;20231;-44
2023/10/07 08:55:57;;;;;;;3.75;2.05;;;;;;;;;;4842972;29;20238;-46
2023/10/07 08:58:28;;;;;;;4.78;2.22;;;;;;;;;;4842826;29;20243;-45
2023/10/07 09:00:56;;;;;;;4.43;2.20;;;;;;;;;;4842188;29;20241;-45
2023/10/07 09:03:28;;;;;;;5.30;2.13;;;;;;;;;;4842534;29;20247;-45
2023/10/07 09:05:59;;;;;;;7.90;2.20;;;;;;;;;;4842593;29;20239;-44
2023/10/07 09:08:33;;;;;;;5.90;2.08;;;;;;;;;;4842493;29;20239;-45
2023/10/07 09:11:07;;;;;;;9.75;2.10;;;;;;;;;;4842367;29;20292;-45
2023/10/07 09:13:38;;;;;;;3.88;1.90;;;;;;;;;;4842500;29;20602;-45
2023/10/07 09:16:07;;;;;;;3.60;2.08;;;;;;;;;;4842155;29;20227;-45
2023/10/07 09:18:41;;;;;;;4.53;1.83;;;;;;;;;;4850601;29;20304;-45
2023/10/07 09:21:11;;;;;;;3.55;1.88;;;;;;;;;;4860650;29;20293;-45
2023/10/07 09:23:46;;;;;;;3.40;1.70;;;;;;;;;;4860444;29;20649;-46
2023/10/07 09:26:21;;;;;;;4.43;1.90;;;;;;;;;;4860890;29;20314;-44
2023/10/07 09:28:58;;;;;;;5.18;2.20;;;;;;;;;;4859844;29;20230;-46
2023/10/07 09:31:27;;;;;;;2.83;1.58;;;;;;;;;;4860220;29;20261;-47
2023/10/07 09:34:03;;;;;;;3.08;1.75;;;;;;;;;;4860540;29;20234;-45
2023/10/07 09:39:16;;;;;;;2.95;1.65;;;;;;;;;;4860339;29;20227;-46
2023/10/07 09:41:55;;;;;;;3.58;1.90;;;;;;;;;;4860432;29;20241;-46
2023/10/07 09:44:26;;;;;;;2.53;1.80;;;;;;;;;;4860464;29;20708;-45
2023/10/07 09:46:54;;;;;;;3.40;1.52;;;;;;;;;;4874201;29;20239;-44
2023/10/07 09:49:25;;;;;;;2.40;1.42;;;;;;;;;;4860288;29;20266;-46
2023/10/07 09:52:15;;;;;;;3.67;1.63;;;;;;;;;;4860413;29;20569;-45
2023/10/07 09:55:26;;;;;;;5.97;1.90;;;;;;;;;;4860230;29;20708;-46
2023/10/07 09:58:00;;;;;;;5.68;2.05;;;;;;;;;;4859241;29;20237;-45
2023/10/07 10:00:46;;;;;;;5.97;2.25;;;;;;;;;;4860040;29;20245;-45
2023/10/07 10:03:39;;;;;;;3.85;1.45;;;;;;;;;;4860055;29;20241;-44
2023/10/07 10:06:16;;;;;;;8.55;1.75;;;;;;;;;;4851399;29;20315;-46
2023/10/07 10:08:59;;;;;;;5.43;1.90;;;;;;;;;;4854868;29;20215;-45
2023/10/07 10:11:43;;;;;;;2.85;1.73;;;;;;;;;;4839794;29;20235;-45
2023/10/07 10:16:54;;;;;;;4.20;1.92;;;;;;;;;;4845986;29;20581;-48
2023/10/07 10:19:26;;;;;;;3.63;1.60;;;;;;;;;;4840983;29;20238;-49
2023/10/07 10:21:53;;;;;;;4.40;1.50;;;;;;;;;;4840977;29;20302;-46
2023/10/07 10:24:30;;;;;;;3.55;1.73;;;;;;;;;;4847769;29;20704;-45
2023/10/07 10:27:04;;;;;;;2.63;1.33;;;;;;;;;;4839720;29;20230;-45
2023/10/07 10:29:36;;;;;;;2.85;1.35;;;;;;;;;;4840935;29;20689;-44
2023/10/07 10:32:16;;;;;;;5.38;1.70;;;;;;;;;;4840934;29;20239;-48
2023/10/07 10:34:45;;;;;;;6.90;1.55;;;;;;;;;;4840922;29;20231;-44
2023/10/07 10:37:12;;;;;;;3.80;1.80;;;;;;;;;;4838824;29;20220;-44
2023/10/07 10:39:39;;;;;;;5.05;1.90;;;;;;;;;;4842035;29;20243;-46
2023/10/07 10:42:13;;;;;;;2.20;1.75;;;;;;;;;;4844359;29;20235;-44
2023/10/07 10:44:46;;;;;;;6.78;1.63;;;;;;;;;;4842344;29;20258;-45
2023/10/07 10:47:21;;;;;;;4.65;1.75;;;;;;;;;;4842206;29;20577;-45
2023/10/07 10:49:54;;;;;;;3.65;1.50;;;;;;;;;;4844044;29;20342;-47
2023/10/07 10:52:24;;;;;;;4.22;1.60;;;;;;;;;;4843484;29;20225;-45
2023/10/07 10:54:52;;;;;;;4.60;2.10;;;;;;;;;;4843940;29;20326;-51
2023/10/07 10:57:20;;;;;;;9.60;1.80;;;;;;;;;;4843967;29;20723;-50
2023/10/07 10:59:50;;;;;;;5.28;1.80;;;;;;;;;;4843563;29;20720;-45
2023/10/07 11:02:22;;;;;;;3.25;1.60;;;;;;;;;;4843446;29;20227;-45
2023/10/07 11:04:51;;;;;;;2.75;1.40;;;;;;;;;;4843694;29;20239;-48
2023/10/07 11:07:19;;;;;;;7.30;1.98;;;;;;;;;;4844021;29;20227;-44
2023/10/07 11:09:51;;;;;;;4.32;2.00;;;;;;;;;;4844077;29;20239;-45
2023/10/07 11:12:22;;;;;;;2.55;1.38;;;;;;;;;;4849924;29;20230;-50
2023/10/07 11:15:02;;;;;;;11.35;1.40;;;;;;;;;;4843378;29;20319;-47
2023/10/07 11:17:31;;;;;;;2.42;1.42;;;;;;;;;;4843807;29;20227;-47
2023/10/07 11:20:02;;;;;;;2.72;1.65;;;;;;;;;;4843333;29;20723;-47
2023/10/07 11:22:37;;;;;;;4.20;1.40;;;;;;;;;;4843871;29;20234;-47
2023/10/07 11:25:06;;;;;;;3.25;1.65;;;;;;;;;;4843785;29;20359;-48
2023/10/07 11:27:37;;;;;;;3.92;1.30;;;;;;;;;;4842445;29;20319;-50
2023/10/07 11:30:06;;;;;;;3.45;1.40;;;;;;;;;;4842316;29;20223;-48
2023/10/07 11:32:38;;;;;;;2.83;1.80;;;;;;;;;;4839086;29;20235;-45
2023/10/07 11:35:20;;;;;;;3.05;2.00;;;;;;;;;;4843340;29;20227;-48
2023/10/07 11:37:58;;;;;;;3.25;1.88;;;;;;;;;;4843434;29;20720;-45
2023/10/07 11:40:32;;;;;;;4.15;2.10;;;;;;;;;;4842878;29;20302;-45
2023/10/07 11:43:04;;;;;;;3.72;2.00;;;;;;;;;;4841879;29;20234;-50
2023/10/07 11:45:32;;;;;;;5.22;2.03;;;;;;;;;;4841374;29;20251;-51
2023/10/07 11:47:59;;;;;;;5.38;2.63;;;;;;;;;;4842108;29;20264;-48
2023/10/07 11:50:31;;;;;;;4.63;2.63;;;;;;;;;;4842384;29;20315;-45
2023/10/07 11:53:00;;;;;;;5.95;2.08;;;;;;;;;;4841928;29;20246;-44
2023/10/07 11:55:27;;;;;;;9.10;2.50;;;;;;;;;;4842826;29;20348;-44
2023/10/07 11:57:55;;;;;;;5.68;2.22;;;;;;;;;;4841710;29;20239;-44
2023/10/07 12:00:29;;;;;;;3.42;1.65;;;;;;;;;;4842603;29;20781;-46
2023/10/07 12:02:57;;;;;;;3.53;1.60;;;;;;;;;;4844674;29;20225;-45
2023/10/07 12:05:27;;;;;;;2.70;1.23;;;;;;;;;;4844616;29;20251;-51
2023/10/07 12:07:59;;;;;;;5.47;1.35;;;;;;;;;;4842568;29;20227;-45
2023/10/07 12:10:33;;;;;;;3.22;1.27;;;;;;;;;;4853869;29;20250;-45
2023/10/07 12:13:03;;;;;;;3.63;0.80;;;;;;;;;;4853768;29;20230;-44
2023/10/07 12:15:31;;;;;;;1.98;0.95;;;;;;;;;;4841335;29;20227;-48
2023/10/07 12:17:58;;;;;;;1.65;0.90;;;;;;;;;;4848710;29;20310;-46
2023/10/07 12:20:28;;;;;;;2.75;1.33;;;;;;;;;;4845586;29;20234;-45
2023/10/07 12:22:56;;;;;;;2.95;0.90;;;;;;;;;;4852477;29;20226;-46
2023/10/07 12:25:23;;;;;;;2.20;0.90;;;;;;;;;;4859317;29;20692;-44
2023/10/07 12:27:51;;;;;;;1.60;0.70;;;;;;;;;;4861618;29;20243;-44
2023/10/07 12:30:21;;;;;;;1.55;0.80;;;;;;;;;;4860022;29;20239;-44
2023/10/07 12:32:49;;;;;;;2.50;0.77;;;;;;;;;;4843674;29;20227;-46
2023/10/07 12:35:18;;;;;;;1.60;0.82;;;;;;;;;;4841950;29;20231;-45
2023/10/07 12:37:48;;;;;;;1.45;0.88;;;;;;;;;;4842334;29;20230;-44
2023/10/07 12:40:18;;;;;;;1.35;0.82;;;;;;;;;;4843987;29;20231;-45
2023/10/07 12:42:57;;;;;;;2.35;0.98;;;;;;;;;;4843287;29;20231;-46
2023/10/07 12:45:26;;;;;;;0.73;0.60;;;;;;;;;;4842532;29;20250;-48
2023/10/07 12:47:56;;;;;;;3.03;0.65;;;;;;;;;;4843508;29;20230;-45
2023/10/07 12:52:52;;;;;;;1.08;0.60;;;;;;;;;;4843891;29;20288;-44
2023/10/07 12:55:19;;;;;;;1.30;0.60;;;;;;;;;;4843677;29;20235;-49
2023/10/07 12:57:49;;;;;;;0.50;0.50;;;;;;;;;;4840136;29;20652;-54
2023/10/07 13:00:23;;;;;;;2.25;0.80;;;;;;;;;;4841578;29;20227;-45
2023/10/07 13:02:52;;;;;;;1.98;0.73;;;;;;;;;;4841568;29;20314;-44
2023/10/07 13:05:24;;;;;;;1.85;0.60;;;;;;;;;;4841978;29;20243;-45
2023/10/07 13:07:53;;;;;;;39.65;2.40;;;;;;;;;;4842110;29;20243;-43
2023/10/07 13:10:20;;;;;;;1.42;0.52;;;;;;;;;;4842540;29;20259;-45
2023/10/07 13:12:49;;;;;;;1.67;0.57;;;;;;;;;;4842055;29;20231;-44
2023/10/07 13:15:18;;;;;;;2.10;0.70;;;;;;;;;;4842082;29;20228;-46
2023/10/07 13:17:47;;;;;;;1.05;0.50;;;;;;;;;;4844573;29;20231;-44
2023/10/07 13:20:23;;;;;;;2.92;0.60;;;;;;;;;;4857120;29;20227;-45
2023/10/07 13:22:51;;;;;;;3.65;0.50;;;;;;;;;;4846774;29;20252;-46
2023/10/07 13:25:19;;;;;;;0.68;0.35;;;;;;;;;;4849637;29;20247;-48
2023/10/07 13:27:48;;;;;;;0.98;0.50;;;;;;;;;;4839679;29;20701;-44
2023/10/07 13:30:16;;;;;;;1.00;0.55;;;;;;;;;;4841158;29;20238;-45
2023/10/07 13:32:46;;;;;;;0.95;0.47;;;;;;;;;;4850327;29;20704;-47
2023/10/07 13:35:15;;;;;;;0.70;0.50;;;;;;;;;;4841678;29;20329;-43
2023/10/07 13:37:43;;;;;;;0.45;0.35;;;;;;;;;;4836817;29;20223;-46
2023/10/07 13:40:20;;;;;;;2.13;0.52;;;;;;;;;;4839182;29;20251;-43
2023/10/07 13:42:49;;;;;;;0.70;0.47;;;;;;;;;;4839962;29;20293;-46
2023/10/07 13:45:18;;;;;;;2.50;0.70;;;;;;;;;;4837700;29;20239;-43
2023/10/07 13:47:45;;;;;;;1.35;0.52;;;;;;;;;;4841588;29;20238;-45
2023/10/07 13:50:14;;;;;;;3.22;0.77;;;;;;;;;;4840131;29;20223;-42
2023/10/07 13:52:59;;;;;;;1.08;0.65;;;;;;;;;;4841298;29;20620;-47
2023/10/07 13:55:33;;;;;;;2.72;0.70;;;;;;;;;;4839234;29;20250;-49
2023/10/07 13:58:01;;;;;;;1.55;0.80;;;;;;;;;;4836818;29;20636;-47
2023/10/07 14:03:08;;;;;;;1.48;0.88;;;;;;;;;;4840229;29;20239;-48
2023/10/07 14:05:48;;;;;;;2.67;0.77;;;;;;;;;;4839461;29;20239;-47
2023/10/07 14:08:19;;;;;;;1.35;0.60;;;;;;;;;;4840804;29;20227;-45
2023/10/07 14:10:55;;;;;;;1.60;0.68;;;;;;;;;;4841294;29;20295;-47
2023/10/07 14:13:24;;;;;;;1.30;0.70;;;;;;;;;;4840163;29;20735;-43
2023/10/07 14:15:51;;;;;;;2.88;0.90;;;;;;;;;;4844547;29;20253;-42
2023/10/07 14:18:24;;;;;;;1.65;0.80;;;;;;;;;;4847378;29;20250;-44
2023/10/07 14:20:52;;;;;;;2.95;0.90;;;;;;;;;;4843374;29;20303;-44
2023/10/07 14:23:21;;;;;;;1.55;0.82;;;;;;;;;;4844750;29;20234;-43
2023/10/07 14:25:51;;;;;;;1.30;0.70;;;;;;;;;;4842938;29;20660;-47
2023/10/07 14:28:19;;;;;;;1.50;0.73;;;;;;;;;;4844075;29;20238;-43
2023/10/07 14:30:51;;;;;;;1.15;0.75;;;;;;;;;;4843858;29;20314;-48
2023/10/07 14:33:19;;;;;;;1.27;0.75;;;;;;;;;;4843214;29;20232;-43
2023/10/07 14:35:47;;;;;;;2.65;1.00;;;;;;;;;;4842284;29;20563;-43
2023/10/07 14:38:15;;;;;;;1.80;0.90;;;;;;;;;;4845051;29;20231;-44
2023/10/07 14:40:44;;;;;;;0.85;0.60;;;;;;;;;;4844542;29;20254;-44
2023/10/07 14:43:12;;;;;;;2.15;1.00;;;;;;;;;;4843483;29;20234;-42
2023/10/07 14:45:50;;;;;;;2.17;1.02;;;;;;;;;;4844496;29;20235;-45
2023/10/07 14:48:17;;;;;;;2.42;0.80;;;;;;;;;;4846791;29;20326;-42
2023/10/07 14:50:45;;;;;;;1.98;0.90;;;;;;;;;;4843478;29;20235;-45
2023/10/07 14:53:13;;;;;;;2.78;1.27;;;;;;;;;;4844360;29;20235;-46
2023/10/07 14:55:45;;;;;;;2.50;0.90;;;;;;;;;;4841360;29;20277;-45
2023/10/07 14:58:15;;;;;;;1.50;0.98;;;;;;;;;;4842100;29;20235;-43
2023/10/07 15:00:46;;;;;;;1.08;0.80;;;;;;;;;;4842024;29;20284;-44
2023/10/07 15:03:17;;;;;;;1.02;0.60;;;;;;;;;;4844712;29;20288;-46
2023/10/07 15:05:44;;;;;;;2.22;0.80;;;;;;;;;;4844084;29;20284;-43
2023/10/07 15:08:13;;;;;;;1.88;0.90;;;;;;;;;;4844500;29;20243;-44
2023/10/07 15:10:41;;;;;;;1.58;1.00;;;;;;;;;;4841128;29;20219;-43
2023/10/07 15:13:10;;;;;;;2.15;0.98;;;;;;;;;;4843414;29;20235;-43
2023/10/07 15:15:39;;;;;;;4.72;1.35;;;;;;;;;;4841669;29;20243;-45
2023/10/07 15:18:07;;;;;;;3.55;1.10;;;;;;;;;;4843281;29;20231;-42
2023/10/07 15:20:35;;;;;;;2.08;0.90;;;;;;;;;;4843833;29;20314;-44
2023/10/07 15:23:05;;;;;;;2.25;1.15;;;;;;;;;;4844021;29;20237;-44
2023/10/07 15:25:37;;;;;;;1.13;1.00;;;;;;;;;;4841291;29;20771;-44
2023/10/07 15:28:06;;;;;;;4.65;1.33;;;;;;;;;;4841454;29;20372;-46
2023/10/07 15:30:37;;;;;;;3.15;1.00;;;;;;;;;;4843818;29;20585;-44
2023/10/07 15:33:07;;;;;;;2.28;1.10;;;;;;;;;;4843397;29;20604;-43
2023/10/07 15:35:34;;;;;;;4.85;1.05;;;;;;;;;;4843555;29;20230;-43
2023/10/07 15:38:01;;;;;;;2.25;1.17;;;;;;;;;;4843217;29;20223;-41
2023/10/07 15:40:28;;;;;;;4.60;1.40;;;;;;;;;;4843794;29;20324;-42
2023/10/07 15:42:56;;;;;;;2.60;0.90;;;;;;;;;;4843100;29;20243;-48
2023/10/07 15:45:23;;;;;;;3.97;1.30;;;;;;;;;;4843822;29;20235;-42
2023/10/07 15:47:50;;;;;;;5.80;2.72;;;;;;;;;;4844143;29;20226;-44
2023/10/07 15:50:17;;;;;;;4.95;1.17;;;;;;;;;;4843533;29;20422;-42
2023/10/07 15:52:45;;;;;;;7.53;1.00;;;;;;;;;;4842831;29;20350;-44
2023/10/07 15:55:12;;;;;;;3.05;1.55;;;;;;;;;;4842860;29;20732;-42
2023/10/07 15:57:40;;;;;;;5.00;1.83;;;;;;;;;;4842768;29;20231;-46
2023/10/07 16:00:11;;;;;;;3.63;1.35;;;;;;;;;;4843543;29;20697;-39